createdAt,value
2022-09-17T00:01:34.843Z,1.42
2022-09-17T00:04:05.438Z,1.40
2022-09-17T00:06:36.666Z,1.38
2022-09-17T00:09:07.256Z,1.60
2022-09-17T00:11:41.247Z,1.30
2022-09-17T00:14:14.106Z,1.40
2022-09-17T00:16:43.991Z,1.05
2022-09-17T00:19:15.692Z,1.27
2022-09-17T00:21:45.607Z,1.40
2022-09-17T00:24:15.831Z,1.23
2022-09-17T00:26:44.272Z,1.50
2022-09-17T00:29:12.572Z,1.13
2022-09-17T00:31:41.659Z,1.20
2022-09-17T00:34:12.140Z,1.00
2022-09-17T00:36:41.156Z,1.10
2022-09-17T00:39:12.810Z,1.10
2022-09-17T00:41:41.111Z,1.20
2022-09-17T00:44:42.782Z,1.63
2022-09-17T00:47:16.656Z,1.30
2022-09-17T00:49:45.609Z,1.42
2022-09-17T00:52:16.993Z,1.25
2022-09-17T00:54:53.945Z,1.00
2022-09-17T00:57:22.355Z,1.33
2022-09-17T00:59:50.739Z,1.30
2022-09-17T01:02:19.992Z,1.30
2022-09-17T01:04:48.320Z,1.30
2022-09-17T01:07:29.395Z,1.35
2022-09-17T01:10:04.249Z,1.38
2022-09-17T01:12:42.497Z,1.80
2022-09-17T01:15:23.013Z,1.40
2022-09-17T01:18:03.185Z,1.40
2022-09-17T01:21:04.542Z,1.88
2022-09-17T01:23:58.892Z,1.60
2022-09-17T01:26:54.705Z,2.10
2022-09-17T01:29:36.585Z,2.17
2022-09-17T01:32:10.937Z,2.10
2022-09-17T01:34:46.981Z,1.70
2022-09-17T01:37:19.949Z,1.70
2022-09-17T01:39:54.093Z,1.63
2022-09-17T01:42:26.959Z,2.13
2022-09-17T01:45:02.632Z,1.90
2022-09-17T01:47:35.587Z,1.65
2022-09-17T01:50:09.341Z,1.80
2022-09-17T01:52:41.638Z,1.87
2022-09-17T01:55:14.955Z,2.30
2022-09-17T01:57:49.278Z,2.30
2022-09-17T02:00:18.593Z,1.88
2022-09-17T02:02:53.103Z,2.00
2022-09-17T02:05:25.802Z,2.40
2022-09-17T02:07:58.355Z,1.88
2022-09-17T02:10:32.327Z,2.15
2022-09-17T02:13:04.551Z,2.08
2022-09-17T02:15:38.247Z,1.75
2022-09-17T02:18:11.684Z,2.27
2022-09-17T02:20:45.859Z,2.25
2022-09-17T02:23:17.699Z,2.30
2022-09-17T02:25:51.527Z,1.95
2022-09-17T02:28:26.968Z,2.17
2022-09-17T02:30:55.617Z,2.20
2022-09-17T02:33:26.126Z,2.33
2022-09-17T02:35:54.547Z,1.80
2022-09-17T02:38:25.531Z,1.65
2022-09-17T02:41:03.279Z,2.08
2022-09-17T02:43:39.593Z,1.70
2022-09-17T02:46:25.598Z,1.92
2022-09-17T02:49:22.669Z,2.28
2022-09-17T02:52:01.745Z,1.80
2022-09-17T02:54:36.554Z,1.88
2022-09-17T02:57:14.569Z,1.45
2022-09-17T02:59:53.107Z,2.30
2022-09-17T03:02:26.271Z,1.90
2022-09-17T03:04:57.063Z,1.77
2022-09-17T03:07:27.171Z,1.80
2022-09-17T03:09:55.522Z,2.20
2022-09-17T03:12:24.463Z,1.90
2022-09-17T03:14:52.738Z,1.70
2022-09-17T03:17:20.998Z,1.73
2022-09-17T03:19:49.332Z,1.42
2022-09-17T03:22:19.029Z,1.80
2022-09-17T03:24:47.275Z,1.50
2022-09-17T03:27:15.729Z,1.63
2022-09-17T03:29:44.440Z,1.30
2022-09-17T03:32:12.694Z,1.45
2022-09-17T03:34:40.955Z,1.70
2022-09-17T03:37:09.199Z,1.33
2022-09-17T03:39:38.876Z,1.52
2022-09-17T03:42:07.565Z,1.45
2022-09-17T03:44:35.815Z,1.33
2022-09-17T03:47:04.154Z,1.20
2022-09-17T03:49:32.421Z,1.30
2022-09-17T03:52:00.707Z,1.35
2022-09-17T03:54:28.973Z,1.33
2022-09-17T03:56:58.629Z,1.42
2022-09-17T03:59:27.264Z,1.20
2022-09-17T04:01:55.630Z,1.13
2022-09-17T04:04:24.084Z,1.17
2022-09-17T04:06:52.321Z,1.20
2022-09-17T04:09:20.595Z,1.40
2022-09-17T04:11:48.826Z,1.30
2022-09-17T04:14:18.494Z,1.10
2022-09-17T04:16:46.774Z,1.25
2022-09-17T04:19:15.062Z,1.40
2022-09-17T04:21:43.346Z,1.00
2022-09-17T04:24:11.624Z,1.00
2022-09-17T04:26:39.930Z,1.10
2022-09-17T04:29:08.387Z,1.50
2022-09-17T04:31:38.074Z,1.25
2022-09-17T04:34:06.566Z,1.42
2022-09-17T04:36:34.826Z,1.50
2022-09-17T04:39:03.113Z,1.48
2022-09-17T04:41:31.397Z,1.50
2022-09-17T04:43:59.643Z,1.30
2022-09-17T04:46:28.028Z,1.48
2022-09-17T04:48:57.789Z,1.38
2022-09-17T04:51:26.078Z,1.80
2022-09-17T04:53:54.424Z,1.83
2022-09-17T04:56:22.658Z,2.10
2022-09-17T04:58:50.890Z,1.80
2022-09-17T05:01:19.615Z,1.63
2022-09-17T05:03:47.997Z,1.55
2022-09-17T05:06:17.615Z,1.63
2022-09-17T05:08:45.885Z,1.52
2022-09-17T05:11:14.734Z,1.60
2022-09-17T05:13:43.050Z,1.30
2022-09-17T05:16:11.840Z,1.20
2022-09-17T05:18:40.189Z,1.50
2022-09-17T05:21:08.571Z,1.48
2022-09-17T05:23:38.208Z,1.17
2022-09-17T05:26:06.562Z,1.30
2022-09-17T05:28:35.047Z,1.40
2022-09-17T05:31:03.614Z,1.52
2022-09-17T05:33:31.893Z,1.38
2022-09-17T05:36:00.294Z,1.40
2022-09-17T05:38:28.761Z,1.55
2022-09-17T05:40:58.404Z,1.23
2022-09-17T05:43:26.671Z,1.30
2022-09-17T05:45:54.934Z,1.23
2022-09-17T05:48:23.192Z,1.08
2022-09-17T05:50:51.447Z,1.50
2022-09-17T05:53:19.713Z,1.33
2022-09-17T05:55:48.052Z,1.13
2022-09-17T05:58:19.368Z,1.40
2022-09-17T06:00:48.736Z,1.20
2022-09-17T06:03:19.230Z,1.20
2022-09-17T06:05:54.686Z,1.20
2022-09-17T06:08:23.497Z,1.30
2022-09-17T06:10:51.753Z,1.33
2022-09-17T06:13:22.461Z,1.30
2022-09-17T06:15:52.199Z,1.80
2022-09-17T06:18:21.560Z,1.20
2022-09-17T06:20:56.517Z,1.45
2022-09-17T06:23:25.163Z,1.33
2022-09-17T06:25:55.468Z,1.23
2022-09-17T06:28:25.630Z,1.27
2022-09-17T06:30:54.593Z,1.27
2022-09-17T06:33:23.539Z,1.30
2022-09-17T06:35:57.750Z,1.20
2022-09-17T06:38:26.037Z,1.10
2022-09-17T06:40:54.722Z,1.02
2022-09-17T06:43:23.596Z,1.40
2022-09-17T06:45:57.781Z,1.20
2022-09-17T06:48:27.338Z,1.38
2022-09-17T06:50:56.218Z,1.60
2022-09-17T06:53:25.665Z,1.40
2022-09-17T06:55:53.893Z,1.30
2022-09-17T06:58:22.182Z,1.20
2022-09-17T07:00:50.491Z,1.20
2022-09-17T07:03:23.436Z,1.35
2022-09-17T07:05:51.799Z,1.33
2022-09-17T07:08:20.105Z,1.23
2022-09-17T07:10:50.205Z,1.40
2022-09-17T07:13:18.783Z,1.50
2022-09-17T07:15:53.712Z,1.20
2022-09-17T07:18:23.669Z,1.50
2022-09-17T07:20:56.026Z,1.67
2022-09-17T07:23:25.520Z,1.55
2022-09-17T07:25:54.664Z,1.20
2022-09-17T07:28:23.891Z,1.45
2022-09-17T07:30:53.083Z,1.40
2022-09-17T07:33:24.987Z,1.33
2022-09-17T07:35:54.548Z,1.60
2022-09-17T07:38:23.696Z,1.40
2022-09-17T07:40:59.857Z,1.40
2022-09-17T07:43:30.193Z,1.40
2022-09-17T07:45:59.852Z,1.15
2022-09-17T07:48:30.231Z,1.60
2022-09-17T07:50:59.136Z,1.30
2022-09-17T07:53:28.043Z,1.40
2022-09-17T07:55:57.977Z,1.40
2022-09-17T07:58:31.088Z,1.10
2022-09-17T08:01:03.147Z,1.90
2022-09-17T08:03:33.354Z,1.65
2022-09-17T08:06:05.619Z,1.42
2022-09-17T08:08:35.741Z,1.30
2022-09-17T08:11:04.353Z,1.63
2022-09-17T08:13:33.485Z,1.48
2022-09-17T08:16:02.599Z,1.60
2022-09-17T08:18:32.935Z,1.70
2022-09-17T08:21:03.426Z,1.50
2022-09-17T08:23:32.911Z,1.17
2022-09-17T08:26:01.286Z,1.20
2022-09-17T08:28:32.158Z,1.33
2022-09-17T08:31:02.816Z,1.38
2022-09-17T08:33:33.610Z,1.83
2022-09-17T08:36:02.319Z,1.98
2022-09-17T08:38:37.696Z,1.48
2022-09-17T08:41:24.197Z,1.52
2022-09-17T08:44:03.049Z,1.40
2022-09-17T08:46:34.546Z,1.40
2022-09-17T08:49:15.314Z,1.27
2022-09-17T08:51:54.802Z,1.50
2022-09-17T08:54:31.907Z,1.17
2022-09-17T08:57:14.330Z,1.45
2022-09-17T08:59:50.699Z,1.20
2022-09-17T09:02:33.609Z,1.13
2022-09-17T09:05:13.281Z,1.20
2022-09-17T09:07:47.582Z,1.30
2022-09-17T09:10:22.363Z,1.48
2022-09-17T09:12:52.792Z,1.05
2022-09-17T09:15:38.149Z,1.25
2022-09-17T09:18:19.046Z,1.20
2022-09-17T09:20:53.515Z,1.20
2022-09-17T09:23:30.381Z,1.40
2022-09-17T09:26:11.066Z,1.45
2022-09-17T09:29:03.281Z,1.17
2022-09-17T09:31:46.904Z,1.45
2022-09-17T09:34:16.133Z,1.10
2022-09-17T09:36:46.862Z,0.98
2022-09-17T09:39:20.247Z,1.30
2022-09-17T09:41:54.202Z,1.20
2022-09-17T09:44:25.813Z,1.27
2022-09-17T09:47:19.579Z,1.15
2022-09-17T09:50:01.899Z,1.17
2022-09-17T09:52:45.711Z,1.50
2022-09-17T09:55:31.438Z,1.20
2022-09-17T09:58:07.954Z,1.20
2022-09-17T10:00:39.323Z,1.13
2022-09-17T10:03:14.131Z,1.00
2022-09-17T10:05:54.305Z,0.98
2022-09-17T10:08:24.369Z,1.10
2022-09-17T10:10:58.122Z,0.90
2022-09-17T10:13:27.526Z,1.08
2022-09-17T10:15:56.140Z,0.93
2022-09-17T10:18:25.935Z,0.90
2022-09-17T10:20:59.388Z,1.00
2022-09-17T10:23:31.685Z,1.38
2022-09-17T10:26:00.126Z,1.23
2022-09-17T10:28:44.242Z,1.35
2022-09-17T10:31:12.701Z,1.00
2022-09-17T10:33:53.544Z,0.88
2022-09-17T10:36:39.520Z,1.00
2022-09-17T10:39:32.690Z,0.82
2022-09-17T10:42:02.935Z,0.80
2022-09-17T10:44:33.062Z,0.90
2022-09-17T10:47:07.272Z,0.80
2022-09-17T10:49:44.964Z,1.02
2022-09-17T10:52:24.884Z,1.00
2022-09-17T10:55:13.526Z,0.90
2022-09-17T10:58:04.531Z,0.90
2022-09-17T11:00:45.145Z,0.93
2022-09-17T11:03:56.770Z,0.70
2022-09-17T11:06:46.635Z,0.70
2022-09-17T11:09:25.727Z,0.98
2022-09-17T11:12:13.542Z,1.00
2022-09-17T11:14:55.691Z,1.40
2022-09-17T11:17:40.542Z,1.00
2022-09-17T11:20:22.242Z,0.95
2022-09-17T11:23:00.004Z,1.20
2022-09-17T11:25:46.326Z,1.10
2022-09-17T11:28:35.995Z,1.00
2022-09-17T11:31:23.203Z,1.17
2022-09-17T11:34:16.051Z,1.30
2022-09-17T11:36:54.893Z,0.90
2022-09-17T11:39:26.858Z,0.90
2022-09-17T11:41:59.272Z,0.82
2022-09-17T11:44:33.232Z,0.85
2022-09-17T11:47:10.158Z,0.70
2022-09-17T11:49:44.665Z,0.80
2022-09-17T11:52:18.470Z,0.70
2022-09-17T11:54:53.843Z,0.70
2022-09-17T11:57:26.882Z,0.70
2022-09-17T12:00:04.116Z,0.80
2022-09-17T12:02:50.942Z,0.80
2022-09-17T12:05:23.721Z,0.93
2022-09-17T12:07:57.694Z,0.80
2022-09-17T12:10:38.008Z,0.93
2022-09-17T12:13:18.187Z,1.00
2022-09-17T12:15:53.533Z,1.00
2022-09-17T12:18:34.076Z,0.88
2022-09-17T12:21:06.015Z,0.70
2022-09-17T12:23:39.320Z,1.00
2022-09-17T12:26:19.090Z,1.05
2022-09-17T12:28:57.500Z,0.80
2022-09-17T12:31:35.999Z,0.90
2022-09-17T12:34:27.244Z,0.80
2022-09-17T12:37:05.854Z,0.90
2022-09-17T12:39:59.525Z,0.90
2022-09-17T12:42:49.337Z,0.80
2022-09-17T12:45:27.549Z,0.73
2022-09-17T12:48:12.171Z,0.80
2022-09-17T12:50:53.003Z,0.70
2022-09-17T12:53:29.345Z,0.80
2022-09-17T12:56:06.482Z,0.90
2022-09-17T12:58:50.547Z,0.75
2022-09-17T13:01:26.712Z,0.70
2022-09-17T13:04:05.630Z,0.77
2022-09-17T13:07:07.543Z,0.77
2022-09-17T13:10:01.657Z,1.00
2022-09-17T13:12:37.205Z,0.90
2022-09-17T13:15:48.135Z,0.95
2022-09-17T13:18:27.064Z,0.95
2022-09-17T13:21:05.462Z,0.90
2022-09-17T13:23:38.534Z,0.90
2022-09-17T13:26:08.119Z,0.90
2022-09-17T13:28:47.530Z,0.80
2022-09-17T13:31:22.756Z,0.82
2022-09-17T13:33:56.652Z,0.93
2022-09-17T13:36:48.971Z,1.02
2022-09-17T13:39:43.713Z,0.90
2022-09-17T13:42:19.921Z,1.00
2022-09-17T13:44:55.159Z,0.88
2022-09-17T13:47:30.821Z,0.90
2022-09-17T13:50:03.846Z,0.93
2022-09-17T13:52:41.559Z,1.10
2022-09-17T13:55:31.545Z,0.80
2022-09-17T13:58:01.903Z,0.85
2022-09-17T14:00:52.256Z,0.80
2022-09-17T14:03:52.965Z,0.80
2022-09-17T14:06:53.276Z,1.10
2022-09-17T14:09:51.267Z,0.80
2022-09-17T14:12:55.128Z,0.90
2022-09-17T14:15:39.327Z,0.80
2022-09-17T14:18:39.040Z,0.90
2022-09-17T14:21:15.490Z,1.00
2022-09-17T14:23:46.088Z,0.70
2022-09-17T14:26:26.064Z,0.93
2022-09-17T14:29:04.924Z,0.70
2022-09-17T14:31:37.695Z,0.88
2022-09-17T14:34:07.074Z,0.80
2022-09-17T14:36:40.103Z,1.00
2022-09-17T14:39:16.468Z,1.17
2022-09-17T14:41:46.803Z,0.82
2022-09-17T14:44:19.486Z,0.90
2022-09-17T14:46:53.803Z,1.08
2022-09-17T14:49:24.526Z,0.82
2022-09-17T14:51:53.599Z,0.80
2022-09-17T14:54:24.827Z,1.00
2022-09-17T14:57:03.105Z,1.00
2022-09-17T14:59:52.246Z,1.00
2022-09-17T15:02:30.218Z,1.00
2022-09-17T15:04:58.819Z,0.88
2022-09-17T15:07:28.031Z,1.10
2022-09-17T15:10:07.692Z,0.90
2022-09-17T15:12:39.355Z,0.90
2022-09-17T15:15:15.338Z,1.00
2022-09-17T15:17:43.804Z,0.90
2022-09-17T15:20:19.119Z,1.00
2022-09-17T15:22:54.944Z,1.10
2022-09-17T15:25:26.328Z,0.90
2022-09-17T15:27:58.400Z,1.00
2022-09-17T15:30:27.134Z,1.02
2022-09-17T15:32:57.734Z,0.90
2022-09-17T15:35:29.207Z,1.10
2022-09-17T15:40:48.417Z,0.90
2022-09-17T15:43:24.704Z,0.80
2022-09-17T15:45:53.000Z,0.90
2022-09-17T15:48:37.412Z,1.00
2022-09-17T15:51:07.879Z,1.00
2022-09-17T15:53:38.331Z,0.90
2022-09-17T15:56:10.981Z,0.93
2022-09-17T15:58:55.926Z,0.90
2022-09-17T16:04:22.463Z,0.80
2022-09-17T16:06:55.192Z,0.80
2022-09-17T16:09:46.740Z,0.90
2022-09-17T16:12:17.143Z,0.77
2022-09-17T16:14:52.299Z,0.85
2022-09-17T16:17:32.859Z,1.00
2022-09-17T16:20:06.016Z,1.00
2022-09-17T16:22:34.776Z,1.08
2022-09-17T16:25:03.221Z,1.10
2022-09-17T16:27:35.767Z,0.90
2022-09-17T16:30:09.337Z,1.25
2022-09-17T16:32:37.650Z,0.80
2022-09-17T16:35:06.821Z,0.80
2022-09-17T16:37:35.120Z,0.70
2022-09-17T16:40:03.547Z,0.75
2022-09-17T16:42:32.328Z,0.80
2022-09-17T16:45:03.274Z,0.70
2022-09-17T16:47:38.013Z,0.80
2022-09-17T16:50:07.981Z,0.75
2022-09-17T16:52:36.631Z,0.90
2022-09-17T16:55:06.552Z,0.80
2022-09-17T16:57:35.551Z,0.80
2022-09-17T17:00:06.023Z,0.77
2022-09-17T17:02:34.386Z,0.90
2022-09-17T17:05:04.301Z,1.25
2022-09-17T17:07:32.888Z,0.80
2022-09-17T17:10:02.022Z,0.80
2022-09-17T17:12:31.011Z,0.80
2022-09-17T17:14:59.263Z,1.00
2022-09-17T17:17:27.725Z,0.93
2022-09-17T17:19:56.142Z,0.98
2022-09-17T17:22:26.780Z,0.90
2022-09-17T17:24:55.248Z,0.90
2022-09-17T17:27:23.546Z,1.00
2022-09-17T17:29:51.868Z,1.02
2022-09-17T17:32:20.127Z,1.10
2022-09-17T17:34:50.084Z,0.80
2022-09-17T17:37:18.602Z,1.00
2022-09-17T17:39:48.209Z,0.88
2022-09-17T17:42:16.639Z,1.00
2022-09-17T17:44:44.872Z,0.88
2022-09-17T17:47:13.535Z,0.93
2022-09-17T17:49:41.920Z,1.00
2022-09-17T17:52:12.268Z,1.00
2022-09-17T17:54:40.609Z,1.00
2022-09-17T17:57:11.304Z,0.98
2022-09-17T17:59:39.571Z,1.05
2022-09-17T18:02:08.145Z,1.08
2022-09-17T18:04:38.538Z,0.95
2022-09-17T18:07:07.662Z,1.40
2022-09-17T18:09:36.019Z,2.20
2022-09-17T18:12:04.407Z,1.38
2022-09-17T18:14:34.041Z,1.40
2022-09-17T18:17:02.439Z,2.47
2022-09-17T18:19:30.694Z,2.00
2022-09-17T18:21:58.937Z,2.83
2022-09-17T18:24:27.237Z,2.30
2022-09-17T18:26:55.487Z,2.13
2022-09-17T18:29:23.761Z,2.17
2022-09-17T18:31:53.759Z,1.48
2022-09-17T18:34:22.116Z,1.58
2022-09-17T18:36:51.463Z,1.67
2022-09-17T18:39:57.049Z,1.63
2022-09-17T18:42:09.506Z,1.40
2022-09-17T18:44:37.838Z,1.38
2022-09-17T18:47:07.676Z,1.38
2022-09-17T18:49:35.952Z,1.35
2022-09-17T18:52:04.280Z,1.42
2022-09-17T18:54:32.566Z,1.27
2022-09-17T18:57:00.941Z,1.20
2022-09-17T18:59:29.246Z,1.75
2022-09-17T19:01:57.585Z,2.88
2022-09-17T19:04:28.535Z,3.78
2022-09-17T19:06:56.804Z,3.00
2022-09-17T19:09:25.289Z,2.63
2022-09-17T19:11:53.558Z,1.60
2022-09-17T19:14:21.814Z,1.67
2022-09-17T19:16:50.080Z,1.60
2022-09-17T19:19:18.365Z,1.60
2022-09-17T19:21:49.948Z,1.70
2022-09-17T19:24:18.257Z,1.50
2022-09-17T19:26:50.807Z,1.40
2022-09-17T19:29:19.345Z,1.58
2022-09-17T19:31:47.658Z,1.50
2022-09-17T19:34:16.019Z,1.48
2022-09-17T19:36:44.326Z,1.60
2022-09-17T19:39:13.918Z,1.40
2022-09-17T19:41:42.180Z,1.35
2022-09-17T19:44:10.496Z,1.48
2022-09-17T19:46:38.832Z,1.50
2022-09-17T19:49:08.609Z,1.40
2022-09-17T19:51:37.672Z,1.48
2022-09-17T19:54:06.692Z,1.70
2022-09-17T19:56:36.345Z,1.50
2022-09-17T19:59:04.806Z,1.20
2022-09-17T20:01:34.819Z,1.10
2022-09-17T20:04:03.547Z,1.55
2022-09-17T20:06:34.616Z,1.20
2022-09-17T20:09:03.080Z,1.20
2022-09-17T20:11:31.471Z,1.20
2022-09-17T20:14:06.369Z,0.90
2022-09-17T20:16:36.548Z,1.25
2022-09-17T20:19:06.112Z,1.10
2022-09-17T20:21:35.090Z,0.90
2022-09-17T20:24:06.788Z,1.00
2022-09-17T20:26:35.506Z,0.90
2022-09-17T20:29:05.192Z,0.88
2022-09-17T20:31:34.209Z,0.80
2022-09-17T20:34:03.840Z,1.00
2022-09-17T20:36:35.500Z,1.15
2022-09-17T20:39:17.906Z,1.10
2022-09-17T20:41:48.009Z,0.95
2022-09-17T20:44:18.442Z,0.88
2022-09-17T20:46:46.727Z,1.10
2022-09-17T20:49:15.007Z,1.00
2022-09-17T20:51:43.330Z,1.10
2022-09-17T20:54:11.750Z,0.80
2022-09-17T20:56:40.235Z,1.60
2022-09-17T20:59:15.021Z,0.80
2022-09-17T21:01:45.831Z,0.90
2022-09-17T21:04:16.394Z,0.95
2022-09-17T21:06:44.960Z,0.93
2022-09-17T21:09:16.596Z,0.98
2022-09-17T21:11:45.750Z,1.00
2022-09-17T21:14:15.578Z,0.90
2022-09-17T21:16:45.983Z,0.80
2022-09-17T21:19:15.770Z,0.82
2022-09-17T21:21:44.076Z,0.82
2022-09-17T21:24:12.432Z,0.88
2022-09-17T21:26:40.740Z,0.90
2022-09-17T21:29:09.180Z,1.00
2022-09-17T21:31:37.866Z,0.98
2022-09-17T21:34:09.131Z,0.90
2022-09-17T21:36:39.086Z,1.20
2022-09-17T21:39:11.026Z,1.00
2022-09-17T21:41:42.504Z,0.80
2022-09-17T21:44:12.444Z,0.90
2022-09-17T21:46:42.417Z,0.88
2022-09-17T21:49:13.312Z,1.10
2022-09-17T21:51:43.119Z,1.00
2022-09-17T21:54:13.453Z,0.90
2022-09-17T21:56:41.882Z,1.15
2022-09-17T21:59:13.047Z,1.05
2022-09-17T22:01:46.001Z,1.20
2022-09-17T22:04:17.478Z,1.08
2022-09-17T22:06:47.307Z,1.20
2022-09-17T22:09:19.065Z,0.90
2022-09-17T22:11:47.659Z,0.80
2022-09-17T22:14:19.337Z,1.00
2022-09-17T22:16:50.511Z,0.95
2022-09-17T22:19:21.199Z,0.90
2022-09-17T22:21:51.218Z,0.93
2022-09-17T22:24:20.932Z,1.00
2022-09-17T22:26:56.603Z,1.13
2022-09-17T22:29:26.815Z,1.13
2022-09-17T22:31:55.253Z,1.00
2022-09-17T22:34:25.807Z,1.00
2022-09-17T22:36:54.069Z,0.90
2022-09-17T22:39:22.656Z,1.30
2022-09-17T22:41:51.030Z,1.10
2022-09-17T22:44:20.833Z,1.00
2022-09-17T22:46:50.763Z,1.17
2022-09-17T22:49:20.102Z,1.08
2022-09-17T22:51:49.902Z,1.02
2022-09-17T22:54:19.587Z,0.95
2022-09-17T22:56:49.122Z,1.27
2022-09-17T22:59:18.020Z,1.63
2022-09-17T23:01:46.452Z,0.98
2022-09-17T23:04:14.761Z,1.10
2022-09-17T23:06:43.031Z,0.90
2022-09-17T23:09:14.786Z,1.13
2022-09-17T23:11:43.051Z,1.10
2022-09-17T23:14:13.963Z,1.00
2022-09-17T23:16:44.313Z,1.00
2022-09-17T23:19:13.120Z,1.02
2022-09-17T23:21:41.533Z,1.40
2022-09-17T23:24:19.886Z,1.20
2022-09-17T23:26:50.157Z,1.10
2022-09-17T23:29:18.866Z,1.00
2022-09-17T23:31:47.145Z,1.10
2022-09-17T23:34:15.591Z,1.30
2022-09-17T23:36:43.952Z,1.27
2022-09-17T23:39:13.043Z,1.23
2022-09-17T23:41:45.352Z,1.08
2022-09-17T23:44:16.422Z,1.05
2022-09-17T23:46:46.613Z,1.17
2022-09-17T23:49:16.089Z,1.10
2022-09-17T23:51:44.694Z,1.10
2022-09-17T23:54:13.098Z,1.42
2022-09-17T23:56:41.387Z,1.27
2022-09-17T23:59:10.786Z,1.40
